KCHD/CHD METAR and TAF weather

Enter ICAO airport designator
Station Type Date Time Source
KCHD METAR 2022/06/28 03:47 UTC NOAA

KCHD 280347Z 09010KT 10SM SCT150 SCT250 35/16 A2996 RMK LAST


Station Type Date Time Source
KCHD Decoded METAR 2022/06/28 03:47 UTC NOAA

Chandler, Chandler Municipal Airport, AZ, United States (KCHD) 33-16-09N 111-48-40W
Jun 27, 2022 - 11:47 PM EDT / 2022.06.28 0347 UTC
Wind: from the E (090 degrees) at 12 MPH (10 KT):0
Visibility: 10 mile(s):0
Sky conditions: partly cloudy
Temperature: 95 F (35 C)
Heat index: 95.2 F (35.1 C):1
Dew Point: 60 F (16 C)
Relative Humidity: 32%
Pressure (altimeter): 29.96 in. Hg (1014 hPa)
ob: KCHD 280347Z 09010KT 10SM SCT150 SCT250 35/16 A2996 RMK LAST
cycle: 4

Station Type Date Time Source
KCHD TAF UTC NOAA

Error!

Example: see airport list